sensor_id;sensor_type;location;lat;lon;timestamp;temperature;humidity
21592;DHT22;10958;50.892;3.992;2023-03-08T00:01:14;5.10;99.90
21592;DHT22;10958;50.892;3.992;2023-03-08T00:03:45;4.90;99.90
21592;DHT22;10958;50.892;3.992;2023-03-08T00:06:13;4.90;99.90
21592;DHT22;10958;50.892;3.992;2023-03-08T00:08:40;5.00;99.90
21592;DHT22;10958;50.892;3.992;2023-03-08T00:11:07;5.00;99.90
21592;DHT22;10958;50.892;3.992;2023-03-08T00:13:33;4.90;99.90
21592;DHT22;10958;50.892;3.992;2023-03-08T00:16:05;5.00;99.90
21592;DHT22;10958;50.892;3.992;2023-03-08T00:18:32;5.00;99.90
21592;DHT22;10958;50.892;3.992;2023-03-08T00:21:05;4.90;99.90
21592;DHT22;10958;50.892;3.992;2023-03-08T00:23:36;4.80;99.90
21592;DHT22;10958;50.892;3.992;2023-03-08T00:26:03;4.80;99.90
21592;DHT22;10958;50.892;3.992;2023-03-08T00:28:30;5.00;99.90
21592;DHT22;10958;50.892;3.992;2023-03-08T00:31:00;5.00;99.90
21592;DHT22;10958;50.892;3.992;2023-03-08T00:33:29;5.00;99.90
21592;DHT22;10958;50.892;3.992;2023-03-08T00:36:00;5.00;99.90
21592;DHT22;10958;50.892;3.992;2023-03-08T00:38:27;5.00;99.90
21592;DHT22;10958;50.892;3.992;2023-03-08T00:40:53;5.20;99.90
21592;DHT22;10958;50.892;3.992;2023-03-08T00:43:19;4.90;99.90
21592;DHT22;10958;50.892;3.992;2023-03-08T00:45:46;5.00;99.90
21592;DHT22;10958;50.892;3.992;2023-03-08T00:48:12;4.90;99.90
21592;DHT22;10958;50.892;3.992;2023-03-08T00:50:38;4.90;99.90
21592;DHT22;10958;50.892;3.992;2023-03-08T00:53:04;4.80;99.90
21592;DHT22;10958;50.892;3.992;2023-03-08T00:55:30;4.70;99.90
21592;DHT22;10958;50.892;3.992;2023-03-08T00:57:58;4.60;99.90
21592;DHT22;10958;50.892;3.992;2023-03-08T01:00:26;4.40;99.90
21592;DHT22;10958;50.892;3.992;2023-03-08T01:02:52;4.40;99.90
21592;DHT22;10958;50.892;3.992;2023-03-08T01:05:18;4.40;99.90
21592;DHT22;10958;50.892;3.992;2023-03-08T01:07:44;4.60;99.90
21592;DHT22;10958;50.892;3.992;2023-03-08T01:10:10;4.30;99.90
21592;DHT22;10958;50.892;3.992;2023-03-08T01:12:36;4.30;99.90
21592;DHT22;10958;50.892;3.992;2023-03-08T01:15:03;4.00;99.90
21592;DHT22;10958;50.892;3.992;2023-03-08T01:17:30;4.20;99.90
21592;DHT22;10958;50.892;3.992;2023-03-08T01:19:58;4.20;99.90
21592;DHT22;10958;50.892;3.992;2023-03-08T01:22:24;4.00;99.90
21592;DHT22;10958;50.892;3.992;2023-03-08T01:24:52;4.20;99.90
21592;DHT22;10958;50.892;3.992;2023-03-08T01:27:20;4.30;99.90
21592;DHT22;10958;50.892;3.992;2023-03-08T01:29:48;4.30;99.90
21592;DHT22;10958;50.892;3.992;2023-03-08T01:32:14;4.40;99.90
21592;DHT22;10958;50.892;3.992;2023-03-08T01:34:40;4.40;99.90
21592;DHT22;10958;50.892;3.992;2023-03-08T01:37:05;4.20;99.90
21592;DHT22;10958;50.892;3.992;2023-03-08T01:39:31;4.00;99.90
21592;DHT22;10958;50.892;3.992;2023-03-08T01:41:57;4.10;99.90
21592;DHT22;10958;50.892;3.992;2023-03-08T01:44:25;3.90;99.90
21592;DHT22;10958;50.892;3.992;2023-03-08T01:46:51;3.80;99.90
21592;DHT22;10958;50.892;3.992;2023-03-08T01:49:18;3.70;99.90
21592;DHT22;10958;50.892;3.992;2023-03-08T01:54:37;3.40;99.90
21592;DHT22;10958;50.892;3.992;2023-03-08T01:57:26;3.60;99.90
21592;DHT22;10958;50.892;3.992;2023-03-08T01:59:55;3.70;99.90
21592;DHT22;10958;50.892;3.992;2023-03-08T02:02:30;3.80;99.90
21592;DHT22;10958;50.892;3.992;2023-03-08T02:04:58;3.90;99.90
21592;DHT22;10958;50.892;3.992;2023-03-08T02:07:24;4.10;99.90
21592;DHT22;10958;50.892;3.992;2023-03-08T02:09:52;4.30;99.90
21592;DHT22;10958;50.892;3.992;2023-03-08T02:12:18;4.20;99.90
21592;DHT22;10958;50.892;3.992;2023-03-08T02:14:44;4.00;99.90
21592;DHT22;10958;50.892;3.992;2023-03-08T02:17:13;3.70;99.90
21592;DHT22;10958;50.892;3.992;2023-03-08T02:19:48;3.50;99.90
21592;DHT22;10958;50.892;3.992;2023-03-08T02:22:17;3.60;99.90
21592;DHT22;10958;50.892;3.992;2023-03-08T02:24:45;3.60;99.90
21592;DHT22;10958;50.892;3.992;2023-03-08T02:27:16;3.60;99.90
21592;DHT22;10958;50.892;3.992;2023-03-08T02:29:43;3.70;99.90
21592;DHT22;10958;50.892;3.992;2023-03-08T02:32:08;3.60;99.90
21592;DHT22;10958;50.892;3.992;2023-03-08T02:34:34;3.40;99.90
21592;DHT22;10958;50.892;3.992;2023-03-08T02:37:00;3.30;99.90
21592;DHT22;10958;50.892;3.992;2023-03-08T02:39:26;3.40;99.90
21592;DHT22;10958;50.892;3.992;2023-03-08T02:41:54;3.50;99.90
21592;DHT22;10958;50.892;3.992;2023-03-08T02:44:19;3.50;99.90
21592;DHT22;10958;50.892;3.992;2023-03-08T02:46:46;3.40;99.90
21592;DHT22;10958;50.892;3.992;2023-03-08T02:49:11;3.30;99.90
21592;DHT22;10958;50.892;3.992;2023-03-08T02:51:38;3.20;99.90
21592;DHT22;10958;50.892;3.992;2023-03-08T02:54:06;3.00;99.90
21592;DHT22;10958;50.892;3.992;2023-03-08T02:56:34;2.90;99.90
21592;DHT22;10958;50.892;3.992;2023-03-08T02:59:04;2.60;99.90
21592;DHT22;10958;50.892;3.992;2023-03-08T03:01:30;2.70;99.90
21592;DHT22;10958;50.892;3.992;2023-03-08T03:03:58;2.90;99.90
21592;DHT22;10958;50.892;3.992;2023-03-08T03:06:24;2.80;99.90
21592;DHT22;10958;50.892;3.992;2023-03-08T03:08:49;2.80;99.90
21592;DHT22;10958;50.892;3.992;2023-03-08T03:11:21;2.90;99.90
21592;DHT22;10958;50.892;3.992;2023-03-08T03:13:53;3.00;99.90
21592;DHT22;10958;50.892;3.992;2023-03-08T03:16:19;2.90;99.90
21592;DHT22;10958;50.892;3.992;2023-03-08T03:18:45;2.90;99.90
21592;DHT22;10958;50.892;3.992;2023-03-08T03:21:12;2.70;99.90
21592;DHT22;10958;50.892;3.992;2023-03-08T03:23:41;2.70;99.90
21592;DHT22;10958;50.892;3.992;2023-03-08T03:26:10;2.50;99.90
21592;DHT22;10958;50.892;3.992;2023-03-08T03:28:36;2.30;99.90
21592;DHT22;10958;50.892;3.992;2023-03-08T03:31:06;2.10;99.90
21592;DHT22;10958;50.892;3.992;2023-03-08T03:33:32;1.90;99.90
21592;DHT22;10958;50.892;3.992;2023-03-08T03:36:03;1.70;99.90
21592;DHT22;10958;50.892;3.992;2023-03-08T03:38:28;1.70;99.90
21592;DHT22;10958;50.892;3.992;2023-03-08T03:41:07;1.60;99.90
21592;DHT22;10958;50.892;3.992;2023-03-08T03:43:33;1.50;99.90
21592;DHT22;10958;50.892;3.992;2023-03-08T03:46:02;1.50;99.90
21592;DHT22;10958;50.892;3.992;2023-03-08T03:48:28;1.50;99.90
21592;DHT22;10958;50.892;3.992;2023-03-08T03:50:59;1.40;99.90
21592;DHT22;10958;50.892;3.992;2023-03-08T03:53:27;1.40;99.90
21592;DHT22;10958;50.892;3.992;2023-03-08T03:58:33;1.30;99.90
21592;DHT22;10958;50.892;3.992;2023-03-08T04:01:00;1.20;99.90
21592;DHT22;10958;50.892;3.992;2023-03-08T04:03:26;1.20;99.90
21592;DHT22;10958;50.892;3.992;2023-03-08T04:05:52;1.20;99.90
21592;DHT22;10958;50.892;3.992;2023-03-08T04:08:18;1.10;99.90
21592;DHT22;10958;50.892;3.992;2023-03-08T04:10:46;1.10;99.90
21592;DHT22;10958;50.892;3.992;2023-03-08T04:13:12;1.20;99.90
21592;DHT22;10958;50.892;3.992;2023-03-08T04:15:38;1.30;99.90
21592;DHT22;10958;50.892;3.992;2023-03-08T04:18:04;1.20;99.90
21592;DHT22;10958;50.892;3.992;2023-03-08T04:20:30;1.20;99.90
21592;DHT22;10958;50.892;3.992;2023-03-08T04:22:55;1.20;99.90
21592;DHT22;10958;50.892;3.992;2023-03-08T04:25:21;1.10;99.90
21592;DHT22;10958;50.892;3.992;2023-03-08T04:27:47;1.10;99.90
21592;DHT22;10958;50.892;3.992;2023-03-08T04:30:13;1.10;99.90
21592;DHT22;10958;50.892;3.992;2023-03-08T04:32:39;1.10;99.90
21592;DHT22;10958;50.892;3.992;2023-03-08T04:35:08;1.20;99.90
21592;DHT22;10958;50.892;3.992;2023-03-08T04:37:35;1.30;99.90
21592;DHT22;10958;50.892;3.992;2023-03-08T04:40:04;1.20;99.90
21592;DHT22;10958;50.892;3.992;2023-03-08T04:42:33;1.10;99.90
21592;DHT22;10958;50.892;3.992;2023-03-08T04:45:02;1.10;99.90
21592;DHT22;10958;50.892;3.992;2023-03-08T04:47:27;1.10;99.90
21592;DHT22;10958;50.892;3.992;2023-03-08T04:49:53;1.00;99.90
21592;DHT22;10958;50.892;3.992;2023-03-08T04:52:24;1.00;99.90
21592;DHT22;10958;50.892;3.992;2023-03-08T04:54:49;1.10;99.90
21592;DHT22;10958;50.892;3.992;2023-03-08T04:57:17;1.00;99.90
21592;DHT22;10958;50.892;3.992;2023-03-08T04:59:43;1.00;99.90
21592;DHT22;10958;50.892;3.992;2023-03-08T05:02:09;1.10;99.90
21592;DHT22;10958;50.892;3.992;2023-03-08T05:04:34;1.10;99.90
21592;DHT22;10958;50.892;3.992;2023-03-08T05:07:00;1.20;99.90
21592;DHT22;10958;50.892;3.992;2023-03-08T05:09:26;1.10;99.90
21592;DHT22;10958;50.892;3.992;2023-03-08T05:11:51;1.00;99.90
21592;DHT22;10958;50.892;3.992;2023-03-08T05:14:17;1.00;99.90
21592;DHT22;10958;50.892;3.992;2023-03-08T05:16:43;1.00;99.90
21592;DHT22;10958;50.892;3.992;2023-03-08T05:19:09;1.00;99.90
21592;DHT22;10958;50.892;3.992;2023-03-08T05:21:35;1.00;99.90
21592;DHT22;10958;50.892;3.992;2023-03-08T05:24:00;1.00;99.90
21592;DHT22;10958;50.892;3.992;2023-03-08T05:26:26;1.00;99.90
21592;DHT22;10958;50.892;3.992;2023-03-08T05:28:53;1.00;99.90
21592;DHT22;10958;50.892;3.992;2023-03-08T05:31:20;1.00;99.90
21592;DHT22;10958;50.892;3.992;2023-03-08T05:33:48;1.00;99.90
21592;DHT22;10958;50.892;3.992;2023-03-08T05:36:16;0.90;99.90
21592;DHT22;10958;50.892;3.992;2023-03-08T05:38:42;0.90;99.90
21592;DHT22;10958;50.892;3.992;2023-03-08T05:41:12;0.90;99.90
21592;DHT22;10958;50.892;3.992;2023-03-08T05:43:42;0.90;99.90
21592;DHT22;10958;50.892;3.992;2023-03-08T05:46:16;0.90;99.90
21592;DHT22;10958;50.892;3.992;2023-03-08T05:48:42;0.90;99.90
21592;DHT22;10958;50.892;3.992;2023-03-08T05:51:13;0.90;99.90
21592;DHT22;10958;50.892;3.992;2023-03-08T05:53:40;0.90;99.90
21592;DHT22;10958;50.892;3.992;2023-03-08T05:56:16;0.90;99.90
21592;DHT22;10958;50.892;3.992;2023-03-08T05:58:43;1.00;99.90
21592;DHT22;10958;50.892;3.992;2023-03-08T06:03:35;1.10;99.90
21592;DHT22;10958;50.892;3.992;2023-03-08T06:06:00;1.20;99.90
21592;DHT22;10958;50.892;3.992;2023-03-08T06:08:26;1.00;99.90
21592;DHT22;10958;50.892;3.992;2023-03-08T06:10:52;1.10;99.90
21592;DHT22;10958;50.892;3.992;2023-03-08T06:13:17;1.00;99.90
21592;DHT22;10958;50.892;3.992;2023-03-08T06:15:43;1.10;99.90
21592;DHT22;10958;50.892;3.992;2023-03-08T06:18:09;1.00;99.90
21592;DHT22;10958;50.892;3.992;2023-03-08T06:20:34;0.90;99.90
21592;DHT22;10958;50.892;3.992;2023-03-08T06:23:00;0.90;99.90
21592;DHT22;10958;50.892;3.992;2023-03-08T06:25:26;1.00;99.90
21592;DHT22;10958;50.892;3.992;2023-03-08T06:27:52;1.00;99.90
21592;DHT22;10958;50.892;3.992;2023-03-08T06:30:18;1.00;99.90
21592;DHT22;10958;50.892;3.992;2023-03-08T06:32:46;0.90;99.90
21592;DHT22;10958;50.892;3.992;2023-03-08T06:35:11;0.90;99.90
21592;DHT22;10958;50.892;3.992;2023-03-08T06:37:37;0.90;99.90
21592;DHT22;10958;50.892;3.992;2023-03-08T06:40:03;0.90;99.90
21592;DHT22;10958;50.892;3.992;2023-03-08T06:42:33;0.90;99.90
21592;DHT22;10958;50.892;3.992;2023-03-08T06:44:59;0.90;99.90
21592;DHT22;10958;50.892;3.992;2023-03-08T06:47:28;0.90;99.90
21592;DHT22;10958;50.892;3.992;2023-03-08T06:49:55;0.90;99.90
21592;DHT22;10958;50.892;3.992;2023-03-08T06:52:20;0.90;99.90
21592;DHT22;10958;50.892;3.992;2023-03-08T06:54:47;0.90;99.90
21592;DHT22;10958;50.892;3.992;2023-03-08T06:57:13;0.90;99.90
21592;DHT22;10958;50.892;3.992;2023-03-08T06:59:38;1.00;99.90
21592;DHT22;10958;50.892;3.992;2023-03-08T07:02:05;1.10;99.90
21592;DHT22;10958;50.892;3.992;2023-03-08T07:04:31;1.00;99.90
21592;DHT22;10958;50.892;3.992;2023-03-08T07:06:57;1.00;99.90
21592;DHT22;10958;50.892;3.992;2023-03-08T07:09:23;1.00;99.90
21592;DHT22;10958;50.892;3.992;2023-03-08T07:11:50;0.90;99.90
21592;DHT22;10958;50.892;3.992;2023-03-08T07:14:15;0.90;99.90
21592;DHT22;10958;50.892;3.992;2023-03-08T07:16:41;0.90;99.90
21592;DHT22;10958;50.892;3.992;2023-03-08T07:19:07;0.90;99.90
21592;DHT22;10958;50.892;3.992;2023-03-08T07:21:32;1.00;99.90
21592;DHT22;10958;50.892;3.992;2023-03-08T07:23:58;1.00;99.90
21592;DHT22;10958;50.892;3.992;2023-03-08T07:26:24;0.90;99.90
21592;DHT22;10958;50.892;3.992;2023-03-08T07:28:50;0.90;99.90
21592;DHT22;10958;50.892;3.992;2023-03-08T07:31:18;1.00;99.90
21592;DHT22;10958;50.892;3.992;2023-03-08T07:33:45;1.00;99.90
21592;DHT22;10958;50.892;3.992;2023-03-08T07:36:11;0.90;99.90
21592;DHT22;10958;50.892;3.992;2023-03-08T07:38:38;1.00;99.90
21592;DHT22;10958;50.892;3.992;2023-03-08T07:41:04;1.10;99.90
21592;DHT22;10958;50.892;3.992;2023-03-08T07:43:32;1.00;99.90
21592;DHT22;10958;50.892;3.992;2023-03-08T07:46:02;1.10;99.90
21592;DHT22;10958;50.892;3.992;2023-03-08T07:48:29;1.10;99.90
21592;DHT22;10958;50.892;3.992;2023-03-08T07:51:00;1.10;99.90
21592;DHT22;10958;50.892;3.992;2023-03-08T07:53:27;1.10;99.90
21592;DHT22;10958;50.892;3.992;2023-03-08T07:55:55;1.30;99.90
21592;DHT22;10958;50.892;3.992;2023-03-08T07:58:21;1.20;99.90
21592;DHT22;10958;50.892;3.992;2023-03-08T08:00:47;1.20;99.90
21592;DHT22;10958;50.892;3.992;2023-03-08T08:03:13;1.10;99.90
21592;DHT22;10958;50.892;3.992;2023-03-08T08:05:39;1.40;99.90
21592;DHT22;10958;50.892;3.992;2023-03-08T08:08:08;1.30;99.90
21592;DHT22;10958;50.892;3.992;2023-03-08T08:10:35;1.40;99.90
21592;DHT22;10958;50.892;3.992;2023-03-08T08:13:00;1.40;99.90
21592;DHT22;10958;50.892;3.992;2023-03-08T08:15:26;1.30;99.90
21592;DHT22;10958;50.892;3.992;2023-03-08T08:17:55;1.40;99.90
21592;DHT22;10958;50.892;3.992;2023-03-08T08:20:20;1.50;99.90
21592;DHT22;10958;50.892;3.992;2023-03-08T08:22:47;1.50;99.90
21592;DHT22;10958;50.892;3.992;2023-03-08T08:25:16;1.40;99.90
21592;DHT22;10958;50.892;3.992;2023-03-08T08:27:44;1.40;99.90
21592;DHT22;10958;50.892;3.992;2023-03-08T08:30:12;1.40;99.90
21592;DHT22;10958;50.892;3.992;2023-03-08T08:32:39;1.30;99.90
21592;DHT22;10958;50.892;3.992;2023-03-08T08:35:05;1.40;99.90
21592;DHT22;10958;50.892;3.992;2023-03-08T08:37:32;1.40;99.90
21592;DHT22;10958;50.892;3.992;2023-03-08T08:40:00;1.50;99.90
21592;DHT22;10958;50.892;3.992;2023-03-08T08:42:32;1.60;99.90
21592;DHT22;10958;50.892;3.992;2023-03-08T08:44:57;1.60;99.90
21592;DHT22;10958;50.892;3.992;2023-03-08T08:47:23;1.60;99.90
21592;DHT22;10958;50.892;3.992;2023-03-08T08:49:49;1.40;99.90
21592;DHT22;10958;50.892;3.992;2023-03-08T08:52:15;1.60;99.90
21592;DHT22;10958;50.892;3.992;2023-03-08T08:54:41;1.50;99.90
21592;DHT22;10958;50.892;3.992;2023-03-08T08:57:09;1.50;99.90
21592;DHT22;10958;50.892;3.992;2023-03-08T08:59:35;1.50;99.90
21592;DHT22;10958;50.892;3.992;2023-03-08T09:02:02;1.60;99.90
21592;DHT22;10958;50.892;3.992;2023-03-08T09:04:28;1.60;99.90
21592;DHT22;10958;50.892;3.992;2023-03-08T09:06:53;1.70;99.90
21592;DHT22;10958;50.892;3.992;2023-03-08T09:09:19;1.80;99.90
21592;DHT22;10958;50.892;3.992;2023-03-08T09:11:47;1.80;99.90
21592;DHT22;10958;50.892;3.992;2023-03-08T09:14:14;1.80;99.90
21592;DHT22;10958;50.892;3.992;2023-03-08T09:16:42;1.80;99.90
21592;DHT22;10958;50.892;3.992;2023-03-08T09:19:08;1.80;99.90
21592;DHT22;10958;50.892;3.992;2023-03-08T09:21:35;1.80;99.90
21592;DHT22;10958;50.892;3.992;2023-03-08T09:24:04;1.80;99.90
21592;DHT22;10958;50.892;3.992;2023-03-08T09:26:33;1.90;99.90
21592;DHT22;10958;50.892;3.992;2023-03-08T09:29:00;1.90;99.90
21592;DHT22;10958;50.892;3.992;2023-03-08T09:31:34;1.90;99.90
21592;DHT22;10958;50.892;3.992;2023-03-08T09:34:09;1.90;99.90
21592;DHT22;10958;50.892;3.992;2023-03-08T09:36:36;2.00;99.90
21592;DHT22;10958;50.892;3.992;2023-03-08T09:42:26;2.20;99.90
21592;DHT22;10958;50.892;3.992;2023-03-08T09:44:56;2.30;99.90
21592;DHT22;10958;50.892;3.992;2023-03-08T09:47:41;2.40;99.90
21592;DHT22;10958;50.892;3.992;2023-03-08T09:55:34;2.50;99.90
21592;DHT22;10958;50.892;3.992;2023-03-08T10:00:47;2.40;99.90
21592;DHT22;10958;50.892;3.992;2023-03-08T10:08:37;2.50;99.90
21592;DHT22;10958;50.892;3.992;2023-03-08T10:11:10;2.50;99.90
21592;DHT22;10958;50.892;3.992;2023-03-08T10:13:45;2.40;99.90
21592;DHT22;10958;50.892;3.992;2023-03-08T10:16:28;2.50;99.90
21592;DHT22;10958;50.892;3.992;2023-03-08T10:19:28;2.40;99.90
21592;DHT22;10958;50.892;3.992;2023-03-08T10:21:56;2.40;99.90
21592;DHT22;10958;50.892;3.992;2023-03-08T10:24:33;2.30;99.90
21592;DHT22;10958;50.892;3.992;2023-03-08T10:27:23;2.40;99.90
21592;DHT22;10958;50.892;3.992;2023-03-08T10:29:57;2.30;99.90
21592;DHT22;10958;50.892;3.992;2023-03-08T10:32:25;2.40;99.90
21592;DHT22;10958;50.892;3.992;2023-03-08T10:34:59;2.50;99.90
21592;DHT22;10958;50.892;3.992;2023-03-08T10:37:32;2.60;99.90
21592;DHT22;10958;50.892;3.992;2023-03-08T10:40:06;2.50;99.90
21592;DHT22;10958;50.892;3.992;2023-03-08T10:42:34;2.60;99.90
21592;DHT22;10958;50.892;3.992;2023-03-08T10:45:13;2.60;99.90
21592;DHT22;10958;50.892;3.992;2023-03-08T10:47:41;2.60;99.90
21592;DHT22;10958;50.892;3.992;2023-03-08T10:50:21;2.70;99.90
21592;DHT22;10958;50.892;3.992;2023-03-08T10:52:50;2.90;99.90
21592;DHT22;10958;50.892;3.992;2023-03-08T10:55:27;2.80;99.90
21592;DHT22;10958;50.892;3.992;2023-03-08T10:58:01;2.80;99.90
21592;DHT22;10958;50.892;3.992;2023-03-08T11:03:43;3.00;99.90
21592;DHT22;10958;50.892;3.992;2023-03-08T11:06:16;3.00;99.90
21592;DHT22;10958;50.892;3.992;2023-03-08T11:08:53;3.00;99.90
21592;DHT22;10958;50.892;3.992;2023-03-08T11:11:22;3.00;99.90
21592;DHT22;10958;50.892;3.992;2023-03-08T11:13:50;2.90;99.90
21592;DHT22;10958;50.892;3.992;2023-03-08T11:21:48;2.80;99.90
21592;DHT22;10958;50.892;3.992;2023-03-08T11:24:24;3.00;99.90
21592;DHT22;10958;50.892;3.992;2023-03-08T11:27:14;3.00;99.90
21592;DHT22;10958;50.892;3.992;2023-03-08T11:30:15;3.00;99.90
21592;DHT22;10958;50.892;3.992;2023-03-08T11:38:06;3.30;99.90
21592;DHT22;10958;50.892;3.992;2023-03-08T11:57:36;3.60;99.90
21592;DHT22;10958;50.892;3.992;2023-03-08T12:00:16;3.60;99.90
21592;DHT22;10958;50.892;3.992;2023-03-08T12:02:49;3.50;99.90
21592;DHT22;10958;50.892;3.992;2023-03-08T12:05:29;3.30;99.90
21592;DHT22;10958;50.892;3.992;2023-03-08T12:10:28;3.40;99.90
21592;DHT22;10958;50.892;3.992;2023-03-08T12:13:00;3.50;99.90
21592;DHT22;10958;50.892;3.992;2023-03-08T12:16:31;3.40;99.90
21592;DHT22;10958;50.892;3.992;2023-03-08T12:18:45;3.30;99.90
21592;DHT22;10958;50.892;3.992;2023-03-08T12:26:35;3.10;99.90
21592;DHT22;10958;50.892;3.992;2023-03-08T12:29:08;3.00;99.90
21592;DHT22;10958;50.892;3.992;2023-03-08T12:31:53;3.20;99.90
21592;DHT22;10958;50.892;3.992;2023-03-08T12:36:54;3.40;99.90
21592;DHT22;10958;50.892;3.992;2023-03-08T12:39:33;3.60;99.90
21592;DHT22;10958;50.892;3.992;2023-03-08T12:44:36;3.60;99.90
21592;DHT22;10958;50.892;3.992;2023-03-08T12:47:17;3.50;99.90
21592;DHT22;10958;50.892;3.992;2023-03-08T12:49:49;3.50;99.90
21592;DHT22;10958;50.892;3.992;2023-03-08T12:55:02;3.50;99.90
21592;DHT22;10958;50.892;3.992;2023-03-08T12:57:37;3.60;99.90
21592;DHT22;10958;50.892;3.992;2023-03-08T13:05:36;3.40;99.90
21592;DHT22;10958;50.892;3.992;2023-03-08T13:10:59;3.40;99.90
21592;DHT22;10958;50.892;3.992;2023-03-08T13:18:31;3.30;99.90
21592;DHT22;10958;50.892;3.992;2023-03-08T13:21:03;3.30;99.90
21592;DHT22;10958;50.892;3.992;2023-03-08T13:23:39;3.40;99.90
21592;DHT22;10958;50.892;3.992;2023-03-08T13:26:37;3.40;99.90
21592;DHT22;10958;50.892;3.992;2023-03-08T13:29:15;3.40;99.90
21592;DHT22;10958;50.892;3.992;2023-03-08T13:31:45;3.40;99.90
21592;DHT22;10958;50.892;3.992;2023-03-08T13:34:31;3.40;99.90
21592;DHT22;10958;50.892;3.992;2023-03-08T13:36:59;3.40;99.90
21592;DHT22;10958;50.892;3.992;2023-03-08T13:39:28;3.50;99.90
21592;DHT22;10958;50.892;3.992;2023-03-08T13:42:17;3.40;99.90
21592;DHT22;10958;50.892;3.992;2023-03-08T13:44:51;3.30;99.90
21592;DHT22;10958;50.892;3.992;2023-03-08T13:47:23;3.30;99.90
21592;DHT22;10958;50.892;3.992;2023-03-08T13:49:52;3.30;99.90
21592;DHT22;10958;50.892;3.992;2023-03-08T13:52:26;3.40;99.90
21592;DHT22;10958;50.892;3.992;2023-03-08T13:54:56;3.40;99.90
21592;DHT22;10958;50.892;3.992;2023-03-08T13:57:34;3.50;99.90
21592;DHT22;10958;50.892;3.992;2023-03-08T14:02:46;3.40;99.90
21592;DHT22;10958;50.892;3.992;2023-03-08T14:05:19;3.30;99.90
21592;DHT22;10958;50.892;3.992;2023-03-08T14:10:47;3.40;99.90
21592;DHT22;10958;50.892;3.992;2023-03-08T14:13:26;3.60;99.90
21592;DHT22;10958;50.892;3.992;2023-03-08T14:15:56;3.60;99.90
21592;DHT22;10958;50.892;3.992;2023-03-08T14:18:25;3.50;99.90
21592;DHT22;10958;50.892;3.992;2023-03-08T14:21:23;3.40;99.90
21592;DHT22;10958;50.892;3.992;2023-03-08T14:24:03;3.30;99.90
21592;DHT22;10958;50.892;3.992;2023-03-08T14:26:38;3.40;99.90
21592;DHT22;10958;50.892;3.992;2023-03-08T14:29:23;3.20;99.90
21592;DHT22;10958;50.892;3.992;2023-03-08T14:31:56;3.20;99.90
21592;DHT22;10958;50.892;3.992;2023-03-08T14:34:29;3.10;99.90
21592;DHT22;10958;50.892;3.992;2023-03-08T14:37:05;3.20;99.90
21592;DHT22;10958;50.892;3.992;2023-03-08T14:39:32;3.10;99.90
21592;DHT22;10958;50.892;3.992;2023-03-08T14:42:08;3.20;99.90
21592;DHT22;10958;50.892;3.992;2023-03-08T14:44:35;3.50;99.90
21592;DHT22;10958;50.892;3.992;2023-03-08T14:47:09;3.50;99.90
21592;DHT22;10958;50.892;3.992;2023-03-08T14:49:37;3.50;99.90
21592;DHT22;10958;50.892;3.992;2023-03-08T14:52:03;3.60;99.90
21592;DHT22;10958;50.892;3.992;2023-03-08T14:56:55;3.60;99.90
21592;DHT22;10958;50.892;3.992;2023-03-08T14:59:21;3.30;99.90
21592;DHT22;10958;50.892;3.992;2023-03-08T15:01:48;3.30;99.90
21592;DHT22;10958;50.892;3.992;2023-03-08T15:04:19;3.30;99.90
21592;DHT22;10958;50.892;3.992;2023-03-08T15:06:46;3.50;99.90
21592;DHT22;10958;50.892;3.992;2023-03-08T15:09:14;3.40;99.90
21592;DHT22;10958;50.892;3.992;2023-03-08T15:11:44;3.20;99.90
21592;DHT22;10958;50.892;3.992;2023-03-08T15:14:12;3.10;99.90
21592;DHT22;10958;50.892;3.992;2023-03-08T15:16:40;3.20;99.90
21592;DHT22;10958;50.892;3.992;2023-03-08T15:19:06;3.20;99.90
21592;DHT22;10958;50.892;3.992;2023-03-08T15:21:33;3.20;99.90
21592;DHT22;10958;50.892;3.992;2023-03-08T15:24:01;3.20;99.90
21592;DHT22;10958;50.892;3.992;2023-03-08T15:26:30;3.20;99.90
21592;DHT22;10958;50.892;3.992;2023-03-08T15:28:57;3.30;99.90
21592;DHT22;10958;50.892;3.992;2023-03-08T15:31:23;3.50;99.90
21592;DHT22;10958;50.892;3.992;2023-03-08T15:33:49;3.40;99.90
21592;DHT22;10958;50.892;3.992;2023-03-08T15:36:17;3.30;99.90
21592;DHT22;10958;50.892;3.992;2023-03-08T15:38:44;3.40;99.90
21592;DHT22;10958;50.892;3.992;2023-03-08T15:41:13;3.30;99.90
21592;DHT22;10958;50.892;3.992;2023-03-08T15:43:42;3.50;99.90
21592;DHT22;10958;50.892;3.992;2023-03-08T15:46:14;3.50;99.90
21592;DHT22;10958;50.892;3.992;2023-03-08T15:48:40;3.70;99.90
21592;DHT22;10958;50.892;3.992;2023-03-08T15:51:14;3.70;99.90
21592;DHT22;10958;50.892;3.992;2023-03-08T15:53:41;3.80;99.90
21592;DHT22;10958;50.892;3.992;2023-03-08T15:56:07;3.60;99.90
21592;DHT22;10958;50.892;3.992;2023-03-08T15:58:32;3.60;99.90
21592;DHT22;10958;50.892;3.992;2023-03-08T16:01:02;3.30;99.90
21592;DHT22;10958;50.892;3.992;2023-03-08T16:03:28;3.40;99.90
21592;DHT22;10958;50.892;3.992;2023-03-08T16:05:54;3.40;99.90
21592;DHT22;10958;50.892;3.992;2023-03-08T16:08:20;3.30;99.90
21592;DHT22;10958;50.892;3.992;2023-03-08T16:10:49;3.20;99.90
21592;DHT22;10958;50.892;3.992;2023-03-08T16:13:15;3.30;99.90
21592;DHT22;10958;50.892;3.992;2023-03-08T16:15:43;3.50;99.90
21592;DHT22;10958;50.892;3.992;2023-03-08T16:18:09;3.70;99.90
21592;DHT22;10958;50.892;3.992;2023-03-08T16:20:38;3.60;99.90
21592;DHT22;10958;50.892;3.992;2023-03-08T16:23:07;3.30;99.90
21592;DHT22;10958;50.892;3.992;2023-03-08T16:25:34;3.30;99.90
21592;DHT22;10958;50.892;3.992;2023-03-08T16:28:02;3.20;99.90
21592;DHT22;10958;50.892;3.992;2023-03-08T16:30:30;3.20;99.90
21592;DHT22;10958;50.892;3.992;2023-03-08T16:32:56;3.40;99.90
21592;DHT22;10958;50.892;3.992;2023-03-08T16:35:24;3.30;99.90
21592;DHT22;10958;50.892;3.992;2023-03-08T16:37:52;3.10;99.90
21592;DHT22;10958;50.892;3.992;2023-03-08T16:40:18;3.10;99.90
21592;DHT22;10958;50.892;3.992;2023-03-08T16:42:48;3.10;99.90
21592;DHT22;10958;50.892;3.992;2023-03-08T16:45:14;3.10;99.90
21592;DHT22;10958;50.892;3.992;2023-03-08T16:47:40;3.10;99.90
21592;DHT22;10958;50.892;3.992;2023-03-08T16:59:42;2.80;99.90
21592;DHT22;10958;50.892;3.992;2023-03-08T17:02:34;2.80;99.90
21592;DHT22;10958;50.892;3.992;2023-03-08T17:05:20;2.70;99.90
21592;DHT22;10958;50.892;3.992;2023-03-08T17:08:22;2.80;99.90
21592;DHT22;10958;50.892;3.992;2023-03-08T17:11:31;2.90;99.90
21592;DHT22;10958;50.892;3.992;2023-03-08T17:17:11;3.00;99.90
21592;DHT22;10958;50.892;3.992;2023-03-08T17:19:50;2.90;99.90
21592;DHT22;10958;50.892;3.992;2023-03-08T17:22:19;2.90;99.90
21592;DHT22;10958;50.892;3.992;2023-03-08T17:25:08;2.90;99.90
21592;DHT22;10958;50.892;3.992;2023-03-08T17:27:40;2.80;99.90
21592;DHT22;10958;50.892;3.992;2023-03-08T17:30:15;2.80;99.90
21592;DHT22;10958;50.892;3.992;2023-03-08T17:32:41;3.10;99.90
21592;DHT22;10958;50.892;3.992;2023-03-08T17:35:23;3.20;99.90
21592;DHT22;10958;50.892;3.992;2023-03-08T17:38:13;3.40;99.90
21592;DHT22;10958;50.892;3.992;2023-03-08T17:41:02;3.40;99.90
21592;DHT22;10958;50.892;3.992;2023-03-08T17:43:56;3.50;99.90
21592;DHT22;10958;50.892;3.992;2023-03-08T17:49:19;3.40;99.90